createdAt,value
2018-06-27T00:01:14.103Z,72.76
2018-06-27T00:03:42.448Z,74.44
2018-06-27T00:06:10.761Z,73.77
2018-06-27T00:08:39.243Z,74.83
2018-06-27T00:11:07.591Z,74.58
2018-06-27T00:13:35.945Z,75.12
2018-06-27T00:16:04.349Z,75.00
2018-06-27T00:18:32.748Z,74.38
2018-06-27T00:21:01.086Z,73.80
2018-06-27T00:23:29.421Z,73.43
2018-06-27T00:25:57.774Z,75.55
2018-06-27T00:28:26.129Z,74.98
2018-06-27T00:30:54.453Z,73.32
2018-06-27T00:33:22.818Z,73.80
2018-06-27T00:35:51.212Z,75.71
2018-06-27T00:38:19.582Z,76.00
2018-06-27T00:40:47.939Z,75.65
2018-06-27T00:43:17.138Z,76.71
2018-06-27T00:45:45.473Z,75.13
2018-06-27T00:48:13.858Z,75.85
2018-06-27T00:50:42.168Z,76.02
2018-06-27T00:53:10.543Z,75.94
2018-06-27T00:55:38.884Z,76.20
2018-06-27T00:58:07.340Z,75.99
2018-06-27T01:00:35.759Z,76.45
2018-06-27T01:03:04.114Z,76.91
2018-06-27T01:05:32.515Z,75.85
2018-06-27T01:08:00.920Z,76.32
2018-06-27T01:10:29.424Z,77.30
2018-06-27T01:12:57.787Z,76.70
2018-06-27T01:15:26.144Z,75.69
2018-06-27T01:17:56.083Z,77.26
2018-06-27T01:20:24.468Z,75.69
2018-06-27T01:22:52.837Z,76.28
2018-06-27T01:25:21.632Z,76.90
2018-06-27T01:27:49.976Z,76.67
2018-06-27T01:30:18.343Z,77.28
2018-06-27T01:32:46.694Z,77.85
2018-06-27T01:35:15.365Z,76.24
2018-06-27T01:37:43.864Z,77.67
2018-06-27T01:40:12.245Z,76.25
2018-06-27T01:42:40.618Z,77.84
2018-06-27T01:45:08.973Z,78.22
2018-06-27T01:47:37.330Z,77.76
2018-06-27T01:50:05.727Z,77.38
2018-06-27T01:52:34.176Z,79.00
2018-06-27T01:55:02.520Z,77.68
2018-06-27T01:57:30.891Z,78.04
2018-06-27T01:59:59.247Z,77.36
2018-06-27T02:02:27.624Z,78.51
2018-06-27T02:04:55.999Z,77.41
2018-06-27T02:07:24.349Z,77.76
2018-06-27T02:09:52.730Z,78.01
2018-06-27T02:12:21.068Z,78.34
2018-06-27T02:14:49.483Z,79.07
2018-06-27T02:17:17.828Z,78.93
2018-06-27T02:19:46.189Z,77.66
2018-06-27T02:22:14.577Z,77.12
2018-06-27T02:24:42.933Z,78.26
2018-06-27T02:27:11.281Z,78.47
2018-06-27T02:29:39.611Z,77.24
2018-06-27T02:32:07.993Z,79.30
2018-06-27T02:34:36.350Z,78.30
2018-06-27T02:37:04.692Z,77.90
2018-06-27T02:39:33.041Z,77.17
2018-06-27T02:42:01.451Z,78.98
2018-06-27T02:44:29.792Z,79.43
2018-06-27T02:46:58.138Z,77.79
2018-06-27T02:49:26.469Z,78.37
2018-06-27T02:51:54.795Z,77.93
2018-06-27T02:54:23.142Z,78.67
2018-06-27T02:56:51.488Z,77.58
2018-06-27T02:59:19.841Z,78.33
2018-06-27T03:01:48.181Z,79.07
2018-06-27T03:04:16.556Z,77.33
2018-06-27T03:06:44.900Z,77.36
2018-06-27T03:09:13.243Z,77.56
2018-06-27T03:11:41.679Z,77.33
2018-06-27T03:14:10.041Z,78.45
2018-06-27T03:16:38.381Z,77.68
2018-06-27T03:19:06.692Z,77.50
2018-06-27T03:21:35.064Z,77.31
2018-06-27T03:24:03.368Z,77.53
2018-06-27T03:26:31.693Z,77.38
2018-06-27T03:29:00.010Z,77.88
2018-06-27T03:31:28.389Z,77.50
2018-06-27T03:33:56.727Z,77.76
2018-06-27T03:36:25.041Z,77.58
2018-06-27T03:38:53.369Z,77.31
2018-06-27T03:41:21.698Z,77.94
2018-06-27T03:43:50.041Z,77.91
2018-06-27T03:46:18.367Z,77.65
2018-06-27T03:48:46.696Z,78.27
2018-06-27T03:51:15.005Z,78.36
2018-06-27T03:53:47.488Z,78.56
2018-06-27T03:56:15.822Z,77.60
2018-06-27T03:58:44.137Z,78.48
2018-06-27T04:01:12.460Z,78.27
2018-06-27T04:03:41.712Z,78.21
2018-06-27T04:07:34.498Z,77.95
2018-06-27T04:10:03.055Z,77.89
2018-06-27T04:12:31.568Z,77.71
2018-06-27T04:14:59.892Z,77.99
2018-06-27T04:17:29.385Z,78.70
2018-06-27T04:19:57.736Z,78.29
2018-06-27T04:22:31.498Z,78.42
2018-06-27T04:25:00.087Z,78.22
2018-06-27T04:27:29.185Z,78.35
2018-06-27T04:29:57.568Z,77.30
2018-06-27T04:32:26.755Z,77.82
2018-06-27T04:34:55.449Z,77.46
2018-06-27T04:37:23.867Z,77.47
2018-06-27T04:39:52.214Z,77.30
2018-06-27T04:42:20.583Z,77.96
2018-06-27T04:44:48.942Z,77.60
2018-06-27T04:47:17.284Z,77.67
2018-06-27T04:49:45.698Z,77.59
2018-06-27T04:52:14.863Z,77.44
2018-06-27T04:54:43.342Z,77.38
2018-06-27T04:57:11.687Z,77.26
2018-06-27T04:59:40.060Z,77.03
2018-06-27T05:02:08.413Z,76.74
2018-06-27T05:04:36.756Z,77.04
2018-06-27T05:07:05.100Z,77.26
2018-06-27T05:09:33.451Z,76.85
2018-06-27T05:12:01.797Z,76.71
2018-06-27T05:14:30.174Z,76.22
2018-06-27T05:16:58.583Z,76.81
2018-06-27T05:19:26.929Z,76.14
2018-06-27T05:21:55.271Z,75.57
2018-06-27T05:24:23.651Z,76.11
2018-06-27T05:26:52.021Z,75.71
2018-06-27T05:29:20.377Z,74.89
2018-06-27T05:31:48.757Z,74.79
2018-06-27T05:34:17.135Z,74.79
2018-06-27T05:36:45.513Z,74.39
2018-06-27T05:39:13.860Z,74.14
2018-06-27T05:41:42.227Z,74.18
2018-06-27T05:44:10.585Z,74.22
2018-06-27T05:46:39.032Z,74.02
2018-06-27T05:49:07.480Z,73.35
2018-06-27T05:51:35.879Z,73.42
2018-06-27T05:54:04.237Z,72.52
2018-06-27T05:56:32.603Z,73.34
2018-06-27T05:59:00.927Z,73.07
2018-06-27T06:01:29.270Z,72.63
2018-06-27T06:03:57.717Z,70.95
2018-06-27T06:06:26.092Z,71.01
2018-06-27T06:08:54.443Z,68.97
2018-06-27T06:11:23.523Z,70.31
2018-06-27T06:13:51.889Z,71.78
2018-06-27T06:16:20.292Z,70.63
2018-06-27T06:18:48.643Z,71.15
2018-06-27T06:21:17.025Z,71.89
2018-06-27T06:23:45.358Z,72.00
2018-06-27T06:26:13.718Z,67.11
2018-06-27T06:28:42.048Z,66.52
2018-06-27T06:31:10.397Z,66.64
2018-06-27T06:33:38.859Z,67.71
2018-06-27T06:36:07.225Z,63.35
2018-06-27T06:38:35.562Z,66.05
2018-06-27T06:41:03.985Z,62.41
2018-06-27T06:43:32.342Z,62.23
2018-06-27T06:46:00.726Z,61.93
2018-06-27T06:48:30.284Z,63.99
2018-06-27T06:50:58.834Z,59.90
2018-06-27T06:53:27.175Z,59.92
2018-06-27T06:55:55.617Z,57.89
2018-06-27T06:58:23.943Z,60.11
2018-06-27T07:00:52.281Z,59.05
2018-06-27T07:03:20.652Z,61.83
2018-06-27T07:05:49.730Z,56.89
2018-06-27T07:08:18.058Z,57.25
2018-06-27T07:10:46.518Z,56.63
2018-06-27T07:13:14.870Z,59.16
2018-06-27T07:15:43.208Z,53.82
2018-06-27T07:18:11.575Z,58.18
2018-06-27T07:20:39.958Z,55.60
2018-06-27T07:23:08.308Z,56.06
2018-06-27T07:25:36.678Z,51.78
2018-06-27T07:28:05.022Z,54.14
2018-06-27T07:30:33.370Z,52.07
2018-06-27T07:33:01.741Z,54.69
2018-06-27T07:35:30.091Z,48.75
2018-06-27T07:37:58.420Z,50.64
2018-06-27T07:40:26.749Z,50.50
2018-06-27T07:42:55.150Z,42.49
2018-06-27T07:45:23.512Z,45.53
2018-06-27T07:47:51.888Z,43.75
2018-06-27T07:50:20.305Z,45.86
2018-06-27T07:52:48.666Z,40.33
2018-06-27T07:55:17.125Z,43.62
2018-06-27T07:57:45.444Z,42.16
2018-06-27T08:00:13.787Z,44.21
2018-06-27T08:02:42.107Z,43.07
2018-06-27T08:05:10.455Z,45.00
2018-06-27T08:07:38.905Z,45.03
2018-06-27T08:10:07.247Z,42.74
2018-06-27T08:12:35.941Z,44.37
2018-06-27T08:15:04.378Z,42.20
2018-06-27T08:17:32.743Z,42.34
2018-06-27T08:20:01.124Z,41.46
2018-06-27T08:22:29.465Z,41.65
2018-06-27T08:24:57.786Z,42.34
2018-06-27T08:27:26.138Z,40.82
2018-06-27T08:29:54.485Z,43.12
2018-06-27T08:32:22.836Z,36.64
2018-06-27T08:34:51.218Z,39.87
2018-06-27T08:37:19.567Z,39.58
2018-06-27T08:39:47.898Z,36.47
2018-06-27T08:42:16.292Z,36.41
2018-06-27T08:44:44.625Z,37.69
2018-06-27T08:47:13.009Z,35.67
2018-06-27T08:49:41.396Z,34.36
2018-06-27T08:52:09.767Z,38.71
2018-06-27T08:54:43.442Z,39.26
2018-06-27T08:57:11.836Z,36.02
2018-06-27T08:59:40.188Z,40.11
2018-06-27T09:02:08.523Z,39.09
2018-06-27T09:04:36.865Z,39.99
2018-06-27T09:07:05.633Z,38.68
2018-06-27T09:09:33.984Z,36.77
2018-06-27T09:12:02.356Z,38.88
2018-06-27T09:14:30.708Z,38.02
2018-06-27T09:16:59.117Z,38.97
2018-06-27T09:19:27.464Z,40.00
2018-06-27T09:21:55.843Z,38.75
2018-06-27T09:24:24.186Z,34.65
2018-06-27T09:26:52.670Z,38.78
2018-06-27T09:29:21.031Z,37.69
2018-06-27T09:31:49.352Z,40.85
2018-06-27T09:34:17.668Z,38.11
2018-06-27T09:36:46.039Z,37.89
2018-06-27T09:39:14.413Z,37.98
2018-06-27T09:41:42.747Z,37.89
2018-06-27T09:44:11.069Z,37.21
2018-06-27T09:46:39.448Z,35.56
2018-06-27T09:49:07.824Z,38.51
2018-06-27T09:51:36.191Z,40.31
2018-06-27T09:54:04.587Z,39.38
2018-06-27T09:56:32.950Z,39.69
2018-06-27T09:59:01.303Z,39.79
2018-06-27T10:01:29.689Z,39.22
2018-06-27T10:03:58.068Z,38.00
2018-06-27T10:06:26.444Z,36.75
2018-06-27T10:08:54.814Z,36.84
2018-06-27T10:11:23.195Z,37.44
2018-06-27T10:13:51.581Z,36.73
2018-06-27T10:16:19.957Z,34.68
2018-06-27T10:18:48.307Z,35.96
2018-06-27T10:21:16.688Z,36.59
2018-06-27T10:23:45.066Z,36.60
2018-06-27T10:26:13.393Z,35.62
2018-06-27T10:28:41.743Z,38.81
2018-06-27T10:31:10.096Z,36.34
2018-06-27T10:33:38.495Z,38.06
2018-06-27T10:36:06.857Z,37.73
2018-06-27T10:38:35.187Z,36.88
2018-06-27T10:41:03.531Z,37.87
2018-06-27T10:43:31.851Z,38.02
2018-06-27T10:46:00.238Z,38.13
2018-06-27T10:48:28.599Z,39.13
2018-06-27T10:50:56.976Z,38.99
2018-06-27T10:53:25.354Z,38.87
2018-06-27T10:55:53.711Z,39.63
2018-06-27T10:58:22.059Z,39.05
2018-06-27T11:00:50.397Z,39.77
2018-06-27T11:03:18.765Z,40.07
2018-06-27T11:05:47.133Z,41.04
2018-06-27T11:08:15.468Z,42.21
2018-06-27T11:10:43.836Z,41.24
2018-06-27T11:13:12.196Z,42.52
2018-06-27T11:15:40.562Z,43.13
2018-06-27T11:18:08.916Z,42.12
2018-06-27T11:20:37.235Z,41.53
2018-06-27T11:23:05.776Z,42.70
2018-06-27T11:25:34.128Z,41.56
2018-06-27T11:28:02.471Z,42.85
2018-06-27T11:30:30.813Z,42.52
2018-06-27T11:32:59.190Z,42.95
2018-06-27T11:35:27.542Z,43.12
2018-06-27T11:37:55.885Z,42.73
2018-06-27T11:40:24.298Z,43.02
2018-06-27T11:42:52.679Z,43.81
2018-06-27T11:45:21.007Z,41.46
2018-06-27T11:47:49.364Z,41.74
2018-06-27T11:50:17.738Z,42.30
2018-06-27T11:52:46.232Z,43.50
2018-06-27T11:55:14.603Z,42.84
2018-06-27T11:57:44.347Z,43.39
2018-06-27T12:00:12.846Z,43.45
2018-06-27T12:02:41.214Z,43.27
2018-06-27T12:05:10.544Z,43.37
2018-06-27T12:07:38.940Z,42.34
2018-06-27T12:10:07.307Z,42.85
2018-06-27T12:12:35.688Z,43.25
2018-06-27T12:15:04.125Z,44.08
2018-06-27T12:17:32.486Z,42.79
2018-06-27T12:20:00.863Z,43.64
2018-06-27T12:22:29.232Z,41.32
2018-06-27T12:24:57.565Z,41.36
2018-06-27T12:27:25.930Z,41.73
2018-06-27T12:29:54.304Z,41.49
2018-06-27T12:32:22.708Z,42.92
2018-06-27T12:34:51.055Z,42.66
2018-06-27T12:37:19.381Z,42.08
2018-06-27T12:39:47.722Z,42.52
2018-06-27T12:42:16.063Z,43.28
2018-06-27T12:44:44.383Z,42.81
2018-06-27T12:47:12.751Z,43.35
2018-06-27T12:49:41.131Z,41.94
2018-06-27T12:52:09.480Z,42.19
2018-06-27T12:54:37.808Z,41.07
2018-06-27T12:57:06.174Z,42.35
2018-06-27T12:59:34.510Z,42.58
2018-06-27T13:02:02.884Z,42.06
2018-06-27T13:04:31.251Z,41.49
2018-06-27T13:06:59.598Z,41.29
2018-06-27T13:09:27.963Z,41.91
2018-06-27T13:11:56.303Z,41.89
2018-06-27T13:14:24.683Z,42.27
2018-06-27T13:16:53.073Z,41.88
2018-06-27T13:19:21.408Z,41.71
2018-06-27T13:21:49.790Z,41.99
2018-06-27T13:24:18.119Z,40.95
2018-06-27T13:26:46.444Z,40.61
2018-06-27T13:29:14.770Z,39.28
2018-06-27T13:31:43.133Z,39.70
2018-06-27T13:34:11.450Z,41.63
2018-06-27T13:36:39.824Z,41.79
2018-06-27T13:39:09.316Z,41.57
2018-06-27T13:41:37.697Z,40.11
2018-06-27T13:44:06.753Z,40.24
2018-06-27T13:46:35.119Z,41.86
2018-06-27T13:49:03.464Z,41.44
2018-06-27T13:51:31.801Z,40.37
2018-06-27T13:54:00.146Z,40.77
2018-06-27T13:56:28.471Z,40.79
2018-06-27T13:58:56.906Z,41.67
2018-06-27T14:01:25.251Z,40.79
2018-06-27T14:03:53.706Z,40.49
2018-06-27T14:06:22.097Z,41.55
2018-06-27T14:08:50.497Z,41.10
2018-06-27T14:11:18.866Z,40.52
2018-06-27T14:13:47.218Z,41.02
2018-06-27T14:16:15.568Z,40.75
2018-06-27T14:18:44.001Z,41.33
2018-06-27T14:21:12.355Z,41.27
2018-06-27T14:23:40.734Z,41.48
2018-06-27T14:26:09.081Z,41.45
2018-06-27T14:28:37.451Z,42.07
2018-06-27T14:31:05.872Z,41.59
2018-06-27T14:33:34.252Z,41.54
2018-06-27T14:36:02.642Z,42.22
2018-06-27T14:38:31.047Z,41.98
2018-06-27T14:40:59.419Z,42.18
2018-06-27T14:43:27.809Z,42.53
2018-06-27T14:45:56.186Z,42.29
2018-06-27T14:48:24.530Z,42.50
2018-06-27T14:50:52.906Z,42.29
2018-06-27T14:53:21.368Z,42.61
2018-06-27T14:55:49.726Z,42.20
2018-06-27T14:58:18.146Z,42.45
2018-06-27T15:00:46.494Z,41.41
2018-06-27T15:03:14.862Z,41.81
2018-06-27T15:05:43.212Z,42.03
2018-06-27T15:08:11.588Z,42.38
2018-06-27T15:10:40.312Z,42.89
2018-06-27T15:13:08.660Z,42.08
2018-06-27T15:15:37.036Z,41.87
2018-06-27T15:18:05.541Z,42.30
2018-06-27T15:20:33.955Z,42.11
2018-06-27T15:23:02.248Z,42.67
2018-06-27T15:25:30.629Z,41.65
2018-06-27T15:27:58.968Z,42.44
2018-06-27T15:30:27.313Z,42.32
2018-06-27T15:32:55.691Z,41.97
2018-06-27T15:35:24.108Z,41.65
2018-06-27T15:37:52.419Z,42.92
2018-06-27T15:40:20.743Z,42.92
2018-06-27T15:42:49.160Z,42.01
2018-06-27T15:45:17.525Z,42.84
2018-06-27T15:47:45.964Z,42.44
2018-06-27T15:50:15.271Z,42.26
2018-06-27T15:52:43.744Z,42.35
2018-06-27T15:55:12.100Z,41.96
2018-06-27T15:57:40.468Z,41.77
2018-06-27T16:00:09.029Z,41.42
2018-06-27T16:02:37.397Z,42.91
2018-06-27T16:05:05.862Z,42.08
2018-06-27T16:07:34.266Z,42.93
2018-06-27T16:10:02.634Z,41.56
2018-06-27T16:12:31.043Z,40.74
2018-06-27T16:14:59.407Z,42.06
2018-06-27T16:17:27.992Z,42.44
2018-06-27T16:19:56.174Z,42.00
2018-06-27T16:22:24.544Z,41.35
2018-06-27T16:24:52.987Z,41.26
2018-06-27T16:27:21.338Z,41.60
2018-06-27T16:29:49.701Z,41.80
2018-06-27T16:32:18.052Z,40.37
2018-06-27T16:34:46.400Z,41.82
2018-06-27T16:37:14.819Z,40.77
2018-06-27T16:39:43.297Z,40.48
2018-06-27T16:42:11.610Z,42.33
2018-06-27T16:44:40.378Z,42.07
2018-06-27T16:47:08.735Z,41.59
2018-06-27T16:49:37.092Z,41.90
2018-06-27T16:52:05.657Z,42.89
2018-06-27T16:54:34.173Z,42.09
2018-06-27T16:57:02.659Z,42.09
2018-06-27T16:59:31.013Z,42.59
2018-06-27T17:01:59.422Z,42.80
2018-06-27T17:04:27.865Z,43.45
2018-06-27T17:06:56.372Z,41.13
2018-06-27T17:09:24.803Z,42.71
2018-06-27T17:11:53.342Z,41.63
2018-06-27T17:14:21.677Z,40.92
2018-06-27T17:16:50.080Z,40.99
2018-06-27T17:19:18.446Z,40.77
2018-06-27T17:21:46.810Z,41.22
2018-06-27T17:24:15.242Z,41.05
2018-06-27T17:26:43.588Z,41.51
2018-06-27T17:29:11.944Z,41.83
2018-06-27T17:31:40.367Z,41.63
2018-06-27T17:34:08.700Z,41.21
2018-06-27T17:36:37.105Z,40.78
2018-06-27T17:39:08.079Z,41.43
2018-06-27T17:41:36.837Z,42.46
2018-06-27T17:44:05.342Z,41.61
2018-06-27T17:46:33.840Z,41.89
2018-06-27T17:49:02.199Z,42.55
2018-06-27T17:51:30.564Z,42.50
2018-06-27T17:53:58.944Z,42.91
2018-06-27T17:56:27.291Z,41.99
2018-06-27T17:58:55.633Z,42.18
2018-06-27T18:01:24.016Z,42.37
2018-06-27T18:03:52.363Z,42.03
2018-06-27T18:06:20.773Z,41.26
2018-06-27T18:08:49.197Z,41.28
2018-06-27T18:11:17.499Z,41.52
2018-06-27T18:13:45.907Z,41.95
2018-06-27T18:16:14.307Z,42.18
2018-06-27T18:18:42.689Z,42.83
2018-06-27T18:21:11.184Z,42.89
2018-06-27T18:23:39.630Z,42.76
2018-06-27T18:26:08.061Z,42.48
2018-06-27T18:28:36.475Z,42.27
2018-06-27T18:31:04.831Z,43.29
2018-06-27T18:33:33.184Z,43.44
2018-06-27T18:36:01.568Z,43.00
2018-06-27T18:38:30.042Z,43.36
2018-06-27T18:40:58.476Z,43.68
2018-06-27T18:43:26.901Z,43.84
2018-06-27T18:45:55.374Z,43.43
2018-06-27T18:48:23.866Z,43.56
2018-06-27T18:50:52.296Z,43.87
2018-06-27T18:53:20.783Z,43.71
2018-06-27T18:55:49.448Z,44.92
2018-06-27T18:58:18.010Z,44.66
2018-06-27T19:00:46.448Z,44.24
2018-06-27T19:03:14.963Z,45.40
2018-06-27T19:05:43.358Z,44.91
2018-06-27T19:08:11.762Z,44.20
2018-06-27T19:10:40.167Z,44.92
2018-06-27T19:13:08.639Z,44.74
2018-06-27T19:15:37.020Z,44.54
2018-06-27T19:18:05.667Z,45.08
2018-06-27T19:20:34.075Z,44.64
2018-06-27T19:23:02.580Z,45.43
2018-06-27T19:25:30.989Z,44.76
2018-06-27T19:27:59.451Z,45.11
2018-06-27T19:30:27.920Z,45.42
2018-06-27T19:32:56.334Z,45.57
2018-06-27T19:35:24.657Z,46.32
2018-06-27T19:37:53.091Z,45.96
2018-06-27T19:40:21.435Z,45.76
2018-06-27T19:42:49.776Z,45.63
2018-06-27T19:45:18.101Z,46.14
2018-06-27T19:47:46.450Z,46.10
2018-06-27T19:50:14.808Z,47.41
2018-06-27T19:52:43.162Z,47.75
2018-06-27T19:55:11.650Z,46.99
2018-06-27T19:57:40.027Z,48.11
2018-06-27T20:00:08.387Z,48.74
2018-06-27T20:02:36.726Z,48.84
2018-06-27T20:05:05.134Z,50.49
2018-06-27T20:07:33.616Z,51.21
2018-06-27T20:10:01.971Z,50.84
2018-06-27T20:12:30.291Z,53.12
2018-06-27T20:14:58.729Z,53.65
2018-06-27T20:17:27.049Z,53.23
2018-06-27T20:19:55.387Z,52.68
2018-06-27T20:22:23.827Z,53.73
2018-06-27T20:24:52.131Z,52.66
2018-06-27T20:27:20.499Z,54.91
2018-06-27T20:29:48.875Z,53.70
2018-06-27T20:32:17.236Z,55.85
2018-06-27T20:34:45.575Z,55.73
2018-06-27T20:37:14.116Z,55.79
2018-06-27T20:39:42.471Z,55.65
2018-06-27T20:42:13.424Z,56.98
2018-06-27T20:44:41.797Z,56.75
2018-06-27T20:47:10.178Z,56.13
2018-06-27T20:49:38.557Z,56.71
2018-06-27T20:52:06.930Z,56.87
2018-06-27T20:54:35.311Z,59.15
2018-06-27T20:57:03.686Z,57.35
2018-06-27T20:59:32.063Z,58.90
2018-06-27T21:02:00.397Z,58.62
2018-06-27T21:04:28.760Z,58.00
2018-06-27T21:06:57.134Z,57.32
2018-06-27T21:09:25.513Z,59.10
2018-06-27T21:11:53.840Z,58.18
2018-06-27T21:14:22.197Z,60.16
2018-06-27T21:16:50.588Z,60.59
2018-06-27T21:19:18.931Z,59.79
2018-06-27T21:21:47.311Z,59.65
2018-06-27T21:24:15.676Z,59.31
2018-06-27T21:26:44.030Z,60.71
2018-06-27T21:29:12.376Z,59.81
2018-06-27T21:31:40.736Z,59.49
2018-06-27T21:34:09.129Z,59.06
2018-06-27T21:36:37.531Z,60.19
2018-06-27T21:39:08.087Z,61.00
2018-06-27T21:41:36.424Z,59.80
2018-06-27T21:44:04.880Z,61.50
2018-06-27T21:46:33.319Z,61.55
2018-06-27T21:49:01.665Z,61.88
2018-06-27T21:51:30.048Z,60.54
2018-06-27T21:53:58.389Z,61.54
2018-06-27T21:56:26.738Z,61.18
2018-06-27T21:58:55.125Z,60.13
2018-06-27T22:01:23.488Z,62.02
2018-06-27T22:03:51.891Z,60.82
2018-06-27T22:06:20.217Z,60.76
2018-06-27T22:08:48.558Z,61.45
2018-06-27T22:11:16.870Z,63.01
2018-06-27T22:13:45.212Z,61.96
2018-06-27T22:16:13.641Z,60.84
2018-06-27T22:18:41.995Z,62.05
2018-06-27T22:21:10.538Z,62.67
2018-06-27T22:23:38.869Z,61.68
2018-06-27T22:26:07.266Z,62.17
2018-06-27T22:28:35.628Z,63.51
2018-06-27T22:31:03.977Z,62.16
2018-06-27T22:33:33.139Z,61.74
2018-06-27T22:36:01.600Z,63.05
2018-06-27T22:38:29.951Z,62.48
2018-06-27T22:40:58.306Z,62.41
2018-06-27T22:43:26.649Z,62.95
2018-06-27T22:45:55.504Z,62.36
2018-06-27T22:48:23.919Z,61.91
2018-06-27T22:50:52.240Z,64.58
2018-06-27T22:53:20.611Z,64.20
2018-06-27T22:55:48.944Z,63.22
2018-06-27T22:58:17.371Z,63.99
2018-06-27T23:00:45.720Z,64.23
2018-06-27T23:03:14.102Z,63.85
2018-06-27T23:05:42.461Z,64.13
2018-06-27T23:08:10.891Z,64.59
2018-06-27T23:10:39.290Z,63.53
2018-06-27T23:13:07.726Z,63.98
2018-06-27T23:15:36.128Z,62.42
2018-06-27T23:18:04.610Z,63.26
2018-06-27T23:20:32.939Z,63.30
2018-06-27T23:23:01.288Z,63.00
2018-06-27T23:25:29.618Z,63.84
2018-06-27T23:27:57.956Z,63.69
2018-06-27T23:30:26.295Z,63.92
2018-06-27T23:32:54.717Z,65.15
2018-06-27T23:35:23.080Z,65.09
2018-06-27T23:37:51.432Z,64.02
2018-06-27T23:40:19.786Z,65.02
2018-06-27T23:42:48.136Z,63.41
2018-06-27T23:45:17.610Z,63.90
2018-06-27T23:47:46.006Z,63.46
2018-06-27T23:50:14.799Z,63.55
2018-06-27T23:52:43.196Z,64.91
2018-06-27T23:55:11.549Z,64.08
2018-06-27T23:57:39.962Z,63.73
